Friday, October 19, 2018, 12:21 PM EDT
Back to Local

KMVL, Morrisville Stowe State Airport

Location: Morrisville, VT, United States Lat: 44.533
Local Time: 12:21 PM EDT (16:21 GMT) Lon: -72.617
Time Zone: US/Eastern Elev: 731 ft

Show me the last for .
Show Decoded

2018-10-19 11:54 METAR KMVL 191554Z AUTO 19009KT 10SM CLR 10/02 A2999 RMK AO2 SLP162 T01000022 =
2018-10-19 10:54 METAR KMVL 191454Z AUTO 20015KT 10SM CLR 08/01 A3002 RMK AO2 SLP173 T00830011
                 58020 =
2018-10-19 09:54 METAR KMVL 191354Z AUTO 22012G17KT 10SM CLR 07/01 A3005 RMK AO2 SLP184 T00720006
                 =
2018-10-19 08:54 METAR KMVL 191254Z AUTO 22008KT 10SM CLR 06/M01 A3006 RMK AO2 SLP188 T00561006 =
2018-10-19 07:54 METAR KMVL 191154Z AUTO 22007KT 10SM CLR 04/M01 A3008 RMK AO2 SLP195 T00391011
                 10044 20028 56007 =
2018-10-19 06:54 METAR KMVL 191054Z AUTO 21007KT 10SM CLR 03/M02 A3008 RMK AO2 SLP196 T00331017 =
2018-10-19 05:54 METAR KMVL 190954Z AUTO 22011G17KT 10SM OVC065 04/M02 A3009 RMK AO2 SLP198
                 T00441017 =
2018-10-19 04:54 METAR KMVL 190854Z AUTO 21011G17KT 10SM OVC060 04/M02 A3010 RMK AO2 SLP201
                 T00391022 58018 =
2018-10-19 03:54 METAR KMVL 190754Z AUTO 22007KT 10SM FEW045 OVC070 03/M03 A3013 RMK AO2 SLP209
                 T00331028 =
2018-10-19 02:54 METAR KMVL 190654Z AUTO 21008KT 10SM BKN036 OVC047 03/M02 A3014 RMK AO2 SLP214
                 T00331022 =
2018-10-19 01:54 METAR KMVL 190554Z AUTO 20007KT 10SM OVC039 03/M03 A3016 RMK AO2 SLP219
                 T00331033 10033 21022 58015 =
2018-10-19 00:54 METAR KMVL 190454Z AUTO 21005KT 10SM OVC040 03/M04 A3018 RMK AO2 SLP228
                 T00281039 400391022 =
2018-10-18 23:54 METAR KMVL 190354Z AUTO 21008KT 10SM BKN041 OVC060 02/M04 A3020 RMK AO2 SLP235
                 T00221044 =
2018-10-18 22:54 METAR KMVL 190254Z AUTO VRB06KT 10SM OVC070 02/M06 A3020 RMK AO2 SLP235
                 T00221056 58007 =
2018-10-18 21:54 METAR KMVL 190154Z AUTO 28005KT 10SM SCT090 01/M07 A3021 RMK AO2 SLP239
                 T00111072 =
2018-10-18 20:54 METAR KMVL 190054Z AUTO 00000KT 10SM BKN095 M02/M06 A3022 RMK AO2 SLP244
                 T10221061 =
2018-10-18 19:54 METAR KMVL 182354Z AUTO 00000KT 10SM CLR M01/M06 A3022 RMK AO2 SLP245 T10111061
                 10039 21011 50004 =
2018-10-18 18:54 METAR KMVL 182254Z AUTO VRB04KT 10SM CLR 01/M08 A3022 RMK AO2 SLP244 T00111083 =
2018-10-18 17:54 METAR KMVL 182154Z AUTO VRB05KT 10SM FEW060 02/M09 A3021 RMK AO2 SLP239
                 T00221089 =
2018-10-18 16:54 METAR KMVL 182054Z AUTO 33007G17KT 10SM OVC055 03/M07 A3021 RMK AO2 SLP239
                 T00281072 56005 =
2018-10-18 15:54 METAR KMVL 181954Z AUTO 30007G16KT 260V330 10SM BKN055 02/M08 A3022 RMK AO2
                 SLP242 T00221078 =
2018-10-18 14:54 METAR KMVL 181854Z AUTO VRB05G16KT 10SM BKN050 BKN070 03/M08 A3021 RMK AO2
                 SLP238 T00281078 =
2018-10-18 13:54 METAR KMVL 181754Z AUTO 32008KT 10SM BKN048 OVC055 02/M07 A3022 RMK AO2 SLP244
                 T00221067 10028 21011 55006 =
2018-10-18 12:54 METAR KMVL 181654Z AUTO 32008G18KT 10SM OVC044 02/M06 A3022 RMK AO2 SLP243
                 T00171061 =

Support USWX by starting your Amazon purchase here.